sensor_id;sensor_type;location;lat;lon;timestamp;pressure;altitude;pressure_sealevel;temperature;humidity
7918;BME280;4004;42.624;23.386;2023-06-22T00:00:51;94600.72;;;18.34;100.00
7918;BME280;4004;42.624;23.386;2023-06-22T00:03:19;94600.28;;;18.42;100.00
7918;BME280;4004;42.624;23.386;2023-06-22T00:05:46;94599.16;;;18.43;100.00
7918;BME280;4004;42.624;23.386;2023-06-22T00:08:13;94589.41;;;18.46;100.00
7918;BME280;4004;42.624;23.386;2023-06-22T00:10:40;94597.97;;;18.44;100.00
7918;BME280;4004;42.624;23.386;2023-06-22T00:13:07;94596.00;;;18.45;100.00
7918;BME280;4004;42.624;23.386;2023-06-22T00:15:37;94598.72;;;18.45;100.00
7918;BME280;4004;42.624;23.386;2023-06-22T00:18:06;94597.19;;;18.44;100.00
7918;BME280;4004;42.624;23.386;2023-06-22T00:20:34;94592.09;;;18.53;100.00
7918;BME280;4004;42.624;23.386;2023-06-22T00:23:02;94585.50;;;18.54;100.00
7918;BME280;4004;42.624;23.386;2023-06-22T00:25:31;94583.53;;;18.51;100.00
7918;BME280;4004;42.624;23.386;2023-06-22T00:27:58;94585.09;;;18.56;100.00
7918;BME280;4004;42.624;23.386;2023-06-22T00:30:25;94577.75;;;18.42;100.00
7918;BME280;4004;42.624;23.386;2023-06-22T00:32:53;94572.31;;;18.38;100.00
7918;BME280;4004;42.624;23.386;2023-06-22T00:35:20;94568.81;;;18.41;100.00
7918;BME280;4004;42.624;23.386;2023-06-22T00:37:46;94564.91;;;18.46;100.00
7918;BME280;4004;42.624;23.386;2023-06-22T00:40:13;94574.66;;;18.43;100.00
7918;BME280;4004;42.624;23.386;2023-06-22T00:42:41;94571.13;;;18.50;100.00
7918;BME280;4004;42.624;23.386;2023-06-22T00:45:08;94560.69;;;18.27;100.00
7918;BME280;4004;42.624;23.386;2023-06-22T00:47:35;94573.22;;;17.92;100.00
7918;BME280;4004;42.624;23.386;2023-06-22T00:50:06;94571.66;;;17.59;100.00
7918;BME280;4004;42.624;23.386;2023-06-22T00:52:35;94570.09;;;17.33;100.00
7918;BME280;4004;42.624;23.386;2023-06-22T00:55:02;94571.63;;;17.12;100.00
7918;BME280;4004;42.624;23.386;2023-06-22T00:57:30;94558.41;;;16.96;100.00
7918;BME280;4004;42.624;23.386;2023-06-22T00:59:57;94570.81;;;16.97;100.00
7918;BME280;4004;42.624;23.386;2023-06-22T01:02:23;94566.53;;;16.93;100.00
7918;BME280;4004;42.624;23.386;2023-06-22T01:04:50;94568.47;;;16.89;100.00
7918;BME280;4004;42.624;23.386;2023-06-22T01:07:25;94578.13;;;16.83;100.00
7918;BME280;4004;42.624;23.386;2023-06-22T01:10:00;94571.47;;;16.69;100.00
7918;BME280;4004;42.624;23.386;2023-06-22T01:12:31;94572.66;;;16.68;100.00
7918;BME280;4004;42.624;23.386;2023-06-22T01:15:03;94578.84;;;16.69;100.00
7918;BME280;4004;42.624;23.386;2023-06-22T01:17:32;94572.66;;;16.72;100.00
7918;BME280;4004;42.624;23.386;2023-06-22T01:20:00;94576.16;;;16.72;100.00
7918;BME280;4004;42.624;23.386;2023-06-22T01:22:35;94586.25;;;16.72;100.00
7918;BME280;4004;42.624;23.386;2023-06-22T01:25:09;94591.28;;;16.70;100.00
7918;BME280;4004;42.624;23.386;2023-06-22T01:27:42;94583.13;;;16.73;100.00
7918;BME280;4004;42.624;23.386;2023-06-22T01:30:16;94592.50;;;16.83;100.00
7918;BME280;4004;42.624;23.386;2023-06-22T01:32:43;94598.72;;;16.87;100.00
7918;BME280;4004;42.624;23.386;2023-06-22T01:35:10;94598.34;;;16.96;100.00
7918;BME280;4004;42.624;23.386;2023-06-22T01:37:38;94594.09;;;16.95;100.00
7918;BME280;4004;42.624;23.386;2023-06-22T01:40:07;94595.66;;;17.03;100.00
7918;BME280;4004;42.624;23.386;2023-06-22T01:42:35;94587.13;;;17.12;100.00
7918;BME280;4004;42.624;23.386;2023-06-22T01:45:03;94592.59;;;17.23;100.00
7918;BME280;4004;42.624;23.386;2023-06-22T01:47:32;94602.28;;;17.20;100.00
7918;BME280;4004;42.624;23.386;2023-06-22T01:50:00;94594.91;;;17.10;100.00
7918;BME280;4004;42.624;23.386;2023-06-22T01:52:27;94608.06;;;17.04;100.00
7918;BME280;4004;42.624;23.386;2023-06-22T01:54:54;94603.06;;;17.13;100.00
7918;BME280;4004;42.624;23.386;2023-06-22T01:57:23;94604.63;;;17.22;100.00
7918;BME280;4004;42.624;23.386;2023-06-22T01:59:57;94598.06;;;17.30;100.00
7918;BME280;4004;42.624;23.386;2023-06-22T02:02:28;94605.81;;;17.38;100.00
7918;BME280;4004;42.624;23.386;2023-06-22T02:05:00;94602.31;;;17.38;100.00
7918;BME280;4004;42.624;23.386;2023-06-22T02:07:32;94609.34;;;17.50;100.00
7918;BME280;4004;42.624;23.386;2023-06-22T02:10:02;94614.00;;;17.56;100.00
7918;BME280;4004;42.624;23.386;2023-06-22T02:12:31;94610.09;;;17.61;100.00
7918;BME280;4004;42.624;23.386;2023-06-22T02:14:59;94611.25;;;17.67;100.00
7918;BME280;4004;42.624;23.386;2023-06-22T02:17:26;94601.19;;;17.68;100.00
7918;BME280;4004;42.624;23.386;2023-06-22T02:19:53;94605.84;;;17.74;100.00
7918;BME280;4004;42.624;23.386;2023-06-22T02:22:21;94598.44;;;17.78;100.00
7918;BME280;4004;42.624;23.386;2023-06-22T02:24:49;94601.94;;;17.57;100.00
7918;BME280;4004;42.624;23.386;2023-06-22T02:27:16;94604.66;;;17.47;100.00
7918;BME280;4004;42.624;23.386;2023-06-22T02:29:42;94603.88;;;17.46;100.00
7918;BME280;4004;42.624;23.386;2023-06-22T02:32:09;94605.81;;;17.46;100.00
7918;BME280;4004;42.624;23.386;2023-06-22T02:34:36;94604.25;;;17.37;100.00
7918;BME280;4004;42.624;23.386;2023-06-22T02:37:03;94595.72;;;17.35;100.00
7918;BME280;4004;42.624;23.386;2023-06-22T02:39:31;94590.25;;;17.32;100.00
7918;BME280;4004;42.624;23.386;2023-06-22T02:41:58;94591.44;;;17.45;100.00
7918;BME280;4004;42.624;23.386;2023-06-22T02:44:25;94598.06;;;17.48;100.00
7918;BME280;4004;42.624;23.386;2023-06-22T02:46:52;94597.66;;;17.49;100.00
7918;BME280;4004;42.624;23.386;2023-06-22T02:49:19;94596.09;;;17.52;100.00
7918;BME280;4004;42.624;23.386;2023-06-22T02:51:47;94605.44;;;17.58;100.00
7918;BME280;4004;42.624;23.386;2023-06-22T02:54:14;94607.00;;;17.66;100.00
7918;BME280;4004;42.624;23.386;2023-06-22T02:56:43;94614.38;;;17.76;100.00
7918;BME280;4004;42.624;23.386;2023-06-22T02:59:10;94613.63;;;17.87;100.00
7918;BME280;4004;42.624;23.386;2023-06-22T03:01:37;94616.34;;;17.97;100.00
7918;BME280;4004;42.624;23.386;2023-06-22T03:04:06;94613.56;;;18.22;100.00
7918;BME280;4004;42.624;23.386;2023-06-22T03:06:33;94618.16;;;18.47;100.00
7918;BME280;4004;42.624;23.386;2023-06-22T03:09:02;94618.50;;;18.71;100.00
7918;BME280;4004;42.624;23.386;2023-06-22T03:11:29;94611.00;;;19.00;100.00
7918;BME280;4004;42.624;23.386;2023-06-22T03:13:57;94607.28;;;19.35;100.00
7918;BME280;4004;42.624;23.386;2023-06-22T03:16:24;94614.09;;;19.72;100.00
7918;BME280;4004;42.624;23.386;2023-06-22T03:18:51;94620.03;;;19.53;100.00
7918;BME280;4004;42.624;23.386;2023-06-22T03:21:18;94621.88;;;19.70;100.00
7918;BME280;4004;42.624;23.386;2023-06-22T03:23:45;94629.03;;;20.02;100.00
7918;BME280;4004;42.624;23.386;2023-06-22T03:26:12;94633.88;;;20.25;100.00
7918;BME280;4004;42.624;23.386;2023-06-22T03:28:39;94645.31;;;20.92;100.00
7918;BME280;4004;42.624;23.386;2023-06-22T03:31:07;94643.25;;;21.61;95.75
7918;BME280;4004;42.624;23.386;2023-06-22T03:33:34;94637.91;;;21.78;92.28
7918;BME280;4004;42.624;23.386;2023-06-22T03:36:01;94645.25;;;22.31;89.52
7918;BME280;4004;42.624;23.386;2023-06-22T03:38:28;94652.47;;;23.09;85.99
7918;BME280;4004;42.624;23.386;2023-06-22T03:40:55;94655.84;;;24.06;79.37
7918;BME280;4004;42.624;23.386;2023-06-22T03:43:22;94648.81;;;24.96;69.44
7918;BME280;4004;42.624;23.386;2023-06-22T03:45:49;94655.56;;;25.37;63.99
7918;BME280;4004;42.624;23.386;2023-06-22T03:48:17;94648.44;;;25.91;60.35
7918;BME280;4004;42.624;23.386;2023-06-22T03:50:44;94659.72;;;26.44;57.48
7918;BME280;4004;42.624;23.386;2023-06-22T03:53:11;94662.03;;;26.80;55.63
7918;BME280;4004;42.624;23.386;2023-06-22T03:55:45;94652.38;;;27.42;53.08
7918;BME280;4004;42.624;23.386;2023-06-22T03:58:14;94669.56;;;28.08;51.72
7918;BME280;4004;42.624;23.386;2023-06-22T04:00:40;94659.22;;;28.59;50.34
7918;BME280;4004;42.624;23.386;2023-06-22T04:03:07;94669.13;;;29.15;48.57
7918;BME280;4004;42.624;23.386;2023-06-22T04:05:35;94673.28;;;29.81;46.85
7918;BME280;4004;42.624;23.386;2023-06-22T04:08:02;94673.47;;;30.44;45.03
7918;BME280;4004;42.624;23.386;2023-06-22T04:10:29;94665.09;;;30.29;44.59
7918;BME280;4004;42.624;23.386;2023-06-22T04:12:56;94675.63;;;29.64;45.30
7918;BME280;4004;42.624;23.386;2023-06-22T04:15:23;94666.59;;;29.08;46.46
7918;BME280;4004;42.624;23.386;2023-06-22T04:17:49;94670.47;;;28.83;47.49
7918;BME280;4004;42.624;23.386;2023-06-22T04:20:16;94665.38;;;29.27;47.04
7918;BME280;4004;42.624;23.386;2023-06-22T04:22:44;94666.75;;;30.02;45.16
7918;BME280;4004;42.624;23.386;2023-06-22T04:25:11;94669.16;;;30.67;43.58
7918;BME280;4004;42.624;23.386;2023-06-22T04:27:38;94661.53;;;31.01;42.66
7918;BME280;4004;42.624;23.386;2023-06-22T04:30:07;94657.94;;;31.24;42.14
7918;BME280;4004;42.624;23.386;2023-06-22T04:32:34;94656.34;;;30.93;41.75
7918;BME280;4004;42.624;23.386;2023-06-22T04:35:05;94649.91;;;30.39;43.06
7918;BME280;4004;42.624;23.386;2023-06-22T04:37:31;94635.84;;;29.33;45.45
7918;BME280;4004;42.624;23.386;2023-06-22T04:40:00;94638.66;;;28.69;46.76
7918;BME280;4004;42.624;23.386;2023-06-22T04:42:27;94634.44;;;28.37;47.43
7918;BME280;4004;42.624;23.386;2023-06-22T04:44:53;94632.63;;;28.61;47.12
7918;BME280;4004;42.624;23.386;2023-06-22T04:47:20;94640.72;;;27.47;49.49
7918;BME280;4004;42.624;23.386;2023-06-22T04:49:47;94642.25;;;27.79;49.62
7918;BME280;4004;42.624;23.386;2023-06-22T04:52:14;94612.63;;;28.29;48.55
7918;BME280;4004;42.624;23.386;2023-06-22T04:54:43;94630.94;;;28.55;48.06
7918;BME280;4004;42.624;23.386;2023-06-22T04:57:14;94635.81;;;28.41;48.04
7918;BME280;4004;42.624;23.386;2023-06-22T04:59:41;94638.03;;;28.56;48.30
7918;BME280;4004;42.624;23.386;2023-06-22T05:02:08;94652.47;;;29.06;47.48
7918;BME280;4004;42.624;23.386;2023-06-22T05:04:35;94657.72;;;30.16;46.16
7918;BME280;4004;42.624;23.386;2023-06-22T05:07:04;94655.44;;;31.26;43.67
7918;BME280;4004;42.624;23.386;2023-06-22T05:09:31;94671.72;;;32.43;41.01
7918;BME280;4004;42.624;23.386;2023-06-22T05:11:59;94672.41;;;33.40;39.54
7918;BME280;4004;42.624;23.386;2023-06-22T05:14:29;94671.84;;;34.26;37.42
7918;BME280;4004;42.624;23.386;2023-06-22T05:16:56;94673.50;;;34.98;35.47
7918;BME280;4004;42.624;23.386;2023-06-22T05:19:24;94675.75;;;35.71;34.53
7918;BME280;4004;42.624;23.386;2023-06-22T05:21:58;94675.72;;;36.44;33.07
7918;BME280;4004;42.624;23.386;2023-06-22T05:24:25;94680.44;;;36.89;32.15
7918;BME280;4004;42.624;23.386;2023-06-22T05:26:52;94676.66;;;37.39;31.17
7918;BME280;4004;42.624;23.386;2023-06-22T05:29:19;94682.84;;;37.26;31.33
7918;BME280;4004;42.624;23.386;2023-06-22T05:31:48;94687.22;;;37.69;30.66
7918;BME280;4004;42.624;23.386;2023-06-22T05:34:15;94695.53;;;38.16;29.90
7918;BME280;4004;42.624;23.386;2023-06-22T05:36:42;94700.53;;;38.29;29.78
7918;BME280;4004;42.624;23.386;2023-06-22T05:39:13;94699.88;;;36.59;32.16
7918;BME280;4004;42.624;23.386;2023-06-22T05:41:41;94692.97;;;35.41;34.50
7918;BME280;4004;42.624;23.386;2023-06-22T05:44:08;94700.38;;;34.41;36.04
7918;BME280;4004;42.624;23.386;2023-06-22T05:46:35;94708.66;;;33.46;38.60
7918;BME280;4004;42.624;23.386;2023-06-22T05:49:03;94708.38;;;32.77;40.12
7918;BME280;4004;42.624;23.386;2023-06-22T05:51:49;94707.31;;;32.04;41.14
7918;BME280;4004;42.624;23.386;2023-06-22T05:54:16;94708.59;;;32.73;40.35
7918;BME280;4004;42.624;23.386;2023-06-22T05:56:43;94709.88;;;33.39;39.12
7918;BME280;4004;42.624;23.386;2023-06-22T05:59:10;94705.63;;;33.96;38.63
7918;BME280;4004;42.624;23.386;2023-06-22T06:01:37;94706.47;;;33.76;37.49
7918;BME280;4004;42.624;23.386;2023-06-22T06:04:06;94706.81;;;33.90;36.72
7918;BME280;4004;42.624;23.386;2023-06-22T06:06:34;94708.00;;;33.77;37.36
7918;BME280;4004;42.624;23.386;2023-06-22T06:09:03;94676.22;;;33.43;38.03
7918;BME280;4004;42.624;23.386;2023-06-22T06:11:30;94700.00;;;33.38;37.67
7918;BME280;4004;42.624;23.386;2023-06-22T06:13:56;94701.06;;;33.67;37.55
7918;BME280;4004;42.624;23.386;2023-06-22T06:16:23;94684.25;;;33.61;38.38
7918;BME280;4004;42.624;23.386;2023-06-22T06:18:50;94693.50;;;33.73;38.61
7918;BME280;4004;42.624;23.386;2023-06-22T06:21:20;94691.09;;;33.87;38.95
7918;BME280;4004;42.624;23.386;2023-06-22T06:23:47;94683.44;;;33.81;38.50
7918;BME280;4004;42.624;23.386;2023-06-22T06:26:13;94684.19;;;33.56;38.79
7918;BME280;4004;42.624;23.386;2023-06-22T06:28:42;94697.44;;;33.14;39.52
7918;BME280;4004;42.624;23.386;2023-06-22T06:31:08;94695.41;;;33.35;39.96
7918;BME280;4004;42.624;23.386;2023-06-22T06:33:36;94689.84;;;33.15;40.41
7918;BME280;4004;42.624;23.386;2023-06-22T06:36:03;94689.22;;;33.05;40.34
7918;BME280;4004;42.624;23.386;2023-06-22T06:38:31;94686.66;;;33.48;39.33
7918;BME280;4004;42.624;23.386;2023-06-22T06:40:58;94684.63;;;33.75;38.58
7918;BME280;4004;42.624;23.386;2023-06-22T06:43:25;94687.66;;;34.03;38.12
7918;BME280;4004;42.624;23.386;2023-06-22T06:45:52;94688.66;;;34.32;37.78
7918;BME280;4004;42.624;23.386;2023-06-22T06:48:19;94682.75;;;33.92;39.07
7918;BME280;4004;42.624;23.386;2023-06-22T06:50:45;94678.16;;;34.15;37.90
7918;BME280;4004;42.624;23.386;2023-06-22T06:53:12;94676.19;;;33.95;38.01
7918;BME280;4004;42.624;23.386;2023-06-22T06:55:40;94672.97;;;33.71;38.86
7918;BME280;4004;42.624;23.386;2023-06-22T06:58:07;94665.16;;;33.28;40.33
7918;BME280;4004;42.624;23.386;2023-06-22T07:00:35;94667.06;;;33.63;39.86
7918;BME280;4004;42.624;23.386;2023-06-22T07:03:02;94671.56;;;34.18;38.14
7918;BME280;4004;42.624;23.386;2023-06-22T07:05:29;94669.13;;;33.68;39.47
7918;BME280;4004;42.624;23.386;2023-06-22T07:07:56;94660.50;;;33.40;39.48
7918;BME280;4004;42.624;23.386;2023-06-22T07:10:22;94660.47;;;32.52;41.41
7918;BME280;4004;42.624;23.386;2023-06-22T07:12:51;94666.84;;;31.88;42.54
7918;BME280;4004;42.624;23.386;2023-06-22T07:15:18;94675.00;;;31.76;42.50
7918;BME280;4004;42.624;23.386;2023-06-22T07:17:44;94661.06;;;31.17;44.32
7918;BME280;4004;42.624;23.386;2023-06-22T07:20:12;94657.81;;;30.80;44.56
7918;BME280;4004;42.624;23.386;2023-06-22T07:22:39;94654.44;;;30.75;45.55
7918;BME280;4004;42.624;23.386;2023-06-22T07:25:07;94665.22;;;30.58;46.22
7918;BME280;4004;42.624;23.386;2023-06-22T07:27:36;94658.66;;;30.71;46.17
7918;BME280;4004;42.624;23.386;2023-06-22T07:30:07;94649.97;;;30.78;45.53
7918;BME280;4004;42.624;23.386;2023-06-22T07:32:35;94657.09;;;30.94;45.96
7918;BME280;4004;42.624;23.386;2023-06-22T07:35:02;94660.78;;;30.76;45.40
7918;BME280;4004;42.624;23.386;2023-06-22T07:37:29;94655.28;;;30.67;45.88
7918;BME280;4004;42.624;23.386;2023-06-22T07:39:56;94654.44;;;30.75;46.34
7918;BME280;4004;42.624;23.386;2023-06-22T07:42:24;94661.91;;;30.69;47.14
7918;BME280;4004;42.624;23.386;2023-06-22T07:44:51;94642.34;;;30.64;46.41
7918;BME280;4004;42.624;23.386;2023-06-22T07:47:19;94668.03;;;30.73;46.26
7918;BME280;4004;42.624;23.386;2023-06-22T07:49:50;94665.13;;;30.68;45.78
7918;BME280;4004;42.624;23.386;2023-06-22T07:52:17;94662.28;;;30.77;45.63
7918;BME280;4004;42.624;23.386;2023-06-22T07:54:43;94667.84;;;30.77;45.23
7918;BME280;4004;42.624;23.386;2023-06-22T07:57:10;94661.34;;;30.80;46.25
7918;BME280;4004;42.624;23.386;2023-06-22T07:59:37;94658.72;;;30.62;47.13
7918;BME280;4004;42.624;23.386;2023-06-22T08:02:04;94652.44;;;30.76;46.12
7918;BME280;4004;42.624;23.386;2023-06-22T08:04:32;94656.78;;;30.29;46.97
7918;BME280;4004;42.624;23.386;2023-06-22T08:07:00;94654.94;;;30.50;46.98
7918;BME280;4004;42.624;23.386;2023-06-22T08:09:27;94656.63;;;30.71;46.23
7918;BME280;4004;42.624;23.386;2023-06-22T08:11:54;94649.97;;;30.54;44.51
7918;BME280;4004;42.624;23.386;2023-06-22T08:14:22;94650.44;;;30.76;43.44
7918;BME280;4004;42.624;23.386;2023-06-22T08:16:48;94656.78;;;31.46;42.74
7918;BME280;4004;42.624;23.386;2023-06-22T08:19:15;94650.25;;;31.78;42.00
7918;BME280;4004;42.624;23.386;2023-06-22T08:21:43;94656.88;;;31.81;41.55
7918;BME280;4004;42.624;23.386;2023-06-22T08:24:10;94650.94;;;31.44;41.27
7918;BME280;4004;42.624;23.386;2023-06-22T08:26:37;94644.03;;;31.24;41.88
7918;BME280;4004;42.624;23.386;2023-06-22T08:29:04;94642.97;;;31.36;41.87
7918;BME280;4004;42.624;23.386;2023-06-22T08:31:31;94639.25;;;31.39;42.58
7918;BME280;4004;42.624;23.386;2023-06-22T08:33:59;94631.13;;;31.51;42.00
7918;BME280;4004;42.624;23.386;2023-06-22T08:36:26;94625.28;;;31.49;42.33
7918;BME280;4004;42.624;23.386;2023-06-22T08:38:57;94627.38;;;31.24;43.08
7918;BME280;4004;42.624;23.386;2023-06-22T08:41:26;94628.88;;;30.95;43.07
7918;BME280;4004;42.624;23.386;2023-06-22T08:43:53;94635.28;;;30.63;43.65
7918;BME280;4004;42.624;23.386;2023-06-22T08:46:21;94643.31;;;30.61;45.48
7918;BME280;4004;42.624;23.386;2023-06-22T08:48:50;94641.25;;;30.46;44.80
7918;BME280;4004;42.624;23.386;2023-06-22T08:51:16;94642.47;;;30.45;45.02
7918;BME280;4004;42.624;23.386;2023-06-22T08:53:43;94646.09;;;30.36;45.64
7918;BME280;4004;42.624;23.386;2023-06-22T08:56:12;94635.22;;;30.48;44.86
7918;BME280;4004;42.624;23.386;2023-06-22T08:58:39;94620.06;;;30.01;45.74
7918;BME280;4004;42.624;23.386;2023-06-22T09:01:06;94637.25;;;30.14;46.16
7918;BME280;4004;42.624;23.386;2023-06-22T09:03:32;94631.03;;;29.95;46.26
7918;BME280;4004;42.624;23.386;2023-06-22T09:06:01;94622.03;;;29.67;46.36
7918;BME280;4004;42.624;23.386;2023-06-22T09:08:28;94620.06;;;29.58;46.45
7918;BME280;4004;42.624;23.386;2023-06-22T09:10:55;94619.72;;;29.65;47.55
7918;BME280;4004;42.624;23.386;2023-06-22T09:13:23;94617.53;;;29.36;47.25
7918;BME280;4004;42.624;23.386;2023-06-22T09:15:51;94618.78;;;29.26;46.83
7918;BME280;4004;42.624;23.386;2023-06-22T09:18:18;94618.34;;;29.18;47.53
7918;BME280;4004;42.624;23.386;2023-06-22T09:20:45;94623.72;;;29.22;47.17
7918;BME280;4004;42.624;23.386;2023-06-22T09:23:12;94615.41;;;29.22;48.34
7918;BME280;4004;42.624;23.386;2023-06-22T09:25:40;94615.25;;;29.25;49.03
7918;BME280;4004;42.624;23.386;2023-06-22T09:28:07;94620.34;;;29.18;48.95
7918;BME280;4004;42.624;23.386;2023-06-22T09:30:35;94618.78;;;29.17;48.86
7918;BME280;4004;42.624;23.386;2023-06-22T09:33:02;94615.91;;;29.11;49.07
7918;BME280;4004;42.624;23.386;2023-06-22T09:35:29;94614.97;;;29.14;48.98
7918;BME280;4004;42.624;23.386;2023-06-22T09:37:55;94629.25;;;29.22;46.72
7918;BME280;4004;42.624;23.386;2023-06-22T09:40:22;94622.94;;;29.21;46.47
7918;BME280;4004;42.624;23.386;2023-06-22T09:42:49;94630.63;;;29.26;46.55
7918;BME280;4004;42.624;23.386;2023-06-22T09:45:16;94621.97;;;29.43;46.20
7918;BME280;4004;42.624;23.386;2023-06-22T09:47:44;94623.53;;;29.34;46.22
7918;BME280;4004;42.624;23.386;2023-06-22T09:50:11;94625.09;;;29.26;45.87
7918;BME280;4004;42.624;23.386;2023-06-22T09:52:38;94627.06;;;29.35;46.14
7918;BME280;4004;42.624;23.386;2023-06-22T09:55:05;94621.34;;;29.39;46.35
7918;BME280;4004;42.624;23.386;2023-06-22T09:57:32;94617.69;;;29.32;45.85
7918;BME280;4004;42.624;23.386;2023-06-22T09:59:59;94611.56;;;29.28;46.48
7918;BME280;4004;42.624;23.386;2023-06-22T10:02:26;94608.78;;;29.28;46.28
7918;BME280;4004;42.624;23.386;2023-06-22T10:04:54;94604.94;;;29.35;45.47
7918;BME280;4004;42.624;23.386;2023-06-22T10:07:21;94602.56;;;29.43;45.45
7918;BME280;4004;42.624;23.386;2023-06-22T10:09:47;94593.50;;;29.42;44.86
7918;BME280;4004;42.624;23.386;2023-06-22T10:12:14;94592.41;;;29.49;43.34
7918;BME280;4004;42.624;23.386;2023-06-22T10:14:41;94596.41;;;29.48;44.52
7918;BME280;4004;42.624;23.386;2023-06-22T10:17:08;94598.97;;;29.61;44.40
7918;BME280;4004;42.624;23.386;2023-06-22T10:19:34;94593.91;;;29.68;43.73
7918;BME280;4004;42.624;23.386;2023-06-22T10:22:05;94589.97;;;29.84;43.28
7918;BME280;4004;42.624;23.386;2023-06-22T10:24:31;94587.97;;;29.85;42.43
7918;BME280;4004;42.624;23.386;2023-06-22T10:26:58;94592.25;;;29.86;42.75
7918;BME280;4004;42.624;23.386;2023-06-22T10:29:25;94595.13;;;29.58;42.91
7918;BME280;4004;42.624;23.386;2023-06-22T10:31:52;94592.88;;;29.47;42.38
7918;BME280;4004;42.624;23.386;2023-06-22T10:34:19;94593.22;;;29.40;42.61
7918;BME280;4004;42.624;23.386;2023-06-22T10:36:45;94586.75;;;29.34;43.69
7918;BME280;4004;42.624;23.386;2023-06-22T10:39:15;94582.16;;;29.31;42.69
7918;BME280;4004;42.624;23.386;2023-06-22T10:41:42;94590.00;;;29.23;42.40
7918;BME280;4004;42.624;23.386;2023-06-22T10:44:09;94583.25;;;29.24;44.01
7918;BME280;4004;42.624;23.386;2023-06-22T10:46:36;94584.16;;;29.21;42.29
7918;BME280;4004;42.624;23.386;2023-06-22T10:49:02;94582.63;;;29.29;43.64
7918;BME280;4004;42.624;23.386;2023-06-22T10:51:29;94579.72;;;29.14;43.37
7918;BME280;4004;42.624;23.386;2023-06-22T10:53:57;94575.88;;;29.21;44.29
7918;BME280;4004;42.624;23.386;2023-06-22T10:56:25;94578.97;;;29.14;43.37
7918;BME280;4004;42.624;23.386;2023-06-22T10:58:52;94573.31;;;29.08;43.00
7918;BME280;4004;42.624;23.386;2023-06-22T11:01:20;94571.59;;;29.02;42.88
7918;BME280;4004;42.624;23.386;2023-06-22T11:03:47;94567.28;;;29.10;45.71
7918;BME280;4004;42.624;23.386;2023-06-22T11:06:14;94572.78;;;29.19;45.23
7918;BME280;4004;42.624;23.386;2023-06-22T11:08:44;94570.50;;;28.99;43.78
7918;BME280;4004;42.624;23.386;2023-06-22T11:11:10;94565.44;;;29.07;44.11
7918;BME280;4004;42.624;23.386;2023-06-22T11:13:38;94570.84;;;29.10;42.99
7918;BME280;4004;42.624;23.386;2023-06-22T11:16:05;94561.75;;;29.10;43.46
7918;BME280;4004;42.624;23.386;2023-06-22T11:18:32;94568.50;;;29.18;42.22
7918;BME280;4004;42.624;23.386;2023-06-22T11:20:59;94563.59;;;29.13;43.99
7918;BME280;4004;42.624;23.386;2023-06-22T11:23:26;94563.13;;;29.14;44.16
7918;BME280;4004;42.624;23.386;2023-06-22T11:25:53;94551.28;;;29.14;42.99
7918;BME280;4004;42.624;23.386;2023-06-22T11:28:22;94551.09;;;29.27;43.68
7918;BME280;4004;42.624;23.386;2023-06-22T11:30:52;94549.19;;;29.42;44.74
7918;BME280;4004;42.624;23.386;2023-06-22T11:33:18;94551.06;;;29.36;45.64
7918;BME280;4004;42.624;23.386;2023-06-22T11:35:45;94548.16;;;29.30;43.78
7918;BME280;4004;42.624;23.386;2023-06-22T11:38:12;94545.22;;;29.34;44.26
7918;BME280;4004;42.624;23.386;2023-06-22T11:40:39;94546.00;;;29.25;44.81
7918;BME280;4004;42.624;23.386;2023-06-22T11:43:05;94538.31;;;29.29;44.56
7918;BME280;4004;42.624;23.386;2023-06-22T11:45:32;94539.94;;;29.45;43.46
7918;BME280;4004;42.624;23.386;2023-06-22T11:48:00;94538.03;;;29.61;44.24
7918;BME280;4004;42.624;23.386;2023-06-22T11:50:27;94532.69;;;29.81;44.04
7918;BME280;4004;42.624;23.386;2023-06-22T11:52:55;94538.44;;;30.02;42.28
7918;BME280;4004;42.624;23.386;2023-06-22T11:55:22;94524.63;;;30.16;42.48
7918;BME280;4004;42.624;23.386;2023-06-22T11:57:54;94537.97;;;30.27;41.11
7918;BME280;4004;42.624;23.386;2023-06-22T12:00:21;94531.41;;;30.40;41.60
7918;BME280;4004;42.624;23.386;2023-06-22T12:02:49;94518.09;;;30.29;41.54
7918;BME280;4004;42.624;23.386;2023-06-22T12:05:19;94516.72;;;30.24;41.52
7918;BME280;4004;42.624;23.386;2023-06-22T12:07:46;94532.84;;;30.26;41.73
7918;BME280;4004;42.624;23.386;2023-06-22T12:10:12;94530.59;;;30.24;43.39
7918;BME280;4004;42.624;23.386;2023-06-22T12:12:39;94536.41;;;30.26;42.37
7918;BME280;4004;42.624;23.386;2023-06-22T12:15:07;94524.63;;;29.92;42.55
7918;BME280;4004;42.624;23.386;2023-06-22T12:17:34;94534.88;;;30.01;42.18
7918;BME280;4004;42.624;23.386;2023-06-22T12:20:01;94527.00;;;29.85;42.02
7918;BME280;4004;42.624;23.386;2023-06-22T12:22:32;94544.59;;;29.72;43.21
7918;BME280;4004;42.624;23.386;2023-06-22T12:24:59;94555.94;;;28.80;49.07
7918;BME280;4004;42.624;23.386;2023-06-22T12:27:26;94552.97;;;28.01;52.31
7918;BME280;4004;42.624;23.386;2023-06-22T12:29:52;94557.72;;;27.41;54.88
7918;BME280;4004;42.624;23.386;2023-06-22T12:32:19;94563.50;;;26.81;59.30
7918;BME280;4004;42.624;23.386;2023-06-22T12:34:46;94561.50;;;26.24;62.57
7918;BME280;4004;42.624;23.386;2023-06-22T12:37:13;94563.69;;;25.82;63.75
7918;BME280;4004;42.624;23.386;2023-06-22T12:39:41;94571.53;;;25.32;69.79
7918;BME280;4004;42.624;23.386;2023-06-22T12:42:08;94574.75;;;24.89;80.48
7918;BME280;4004;42.624;23.386;2023-06-22T12:44:37;94583.34;;;24.32;84.41
7918;BME280;4004;42.624;23.386;2023-06-22T12:47:05;94590.44;;;23.84;93.22
7918;BME280;4004;42.624;23.386;2023-06-22T12:49:32;94596.94;;;23.57;100.00
7918;BME280;4004;42.624;23.386;2023-06-22T12:51:58;94599.75;;;23.01;100.00
7918;BME280;4004;42.624;23.386;2023-06-22T12:54:25;94612.63;;;22.81;100.00
7918;BME280;4004;42.624;23.386;2023-06-22T12:56:55;94621.56;;;22.65;100.00
7918;BME280;4004;42.624;23.386;2023-06-22T12:59:22;94620.22;;;22.53;100.00
7918;BME280;4004;42.624;23.386;2023-06-22T13:01:49;94622.13;;;22.56;100.00
7918;BME280;4004;42.624;23.386;2023-06-22T13:04:15;94636.75;;;22.69;100.00
7918;BME280;4004;42.624;23.386;2023-06-22T13:06:43;94641.75;;;22.74;100.00
7918;BME280;4004;42.624;23.386;2023-06-22T13:09:13;94643.00;;;22.90;100.00